Time;durP1;ratioP1;P1;durP2;ratioP2;P2;SDS_P1;SDS_P2;PMS_P1;PMS_P2;Temp;Humidity;BMP_temperature;BMP_pressure;BME280_temperature;BME280_humidity;BME280_pressure;Samples;Min_cycle;Max_cycle;Signal;HPM_P1;HPM_P2
2022/10/04 00:02:15;;;;;;;7.93;4.57;;;12.70;99.90;;;;;;5155326;27;20091;-65
2022/10/04 00:04:46;;;;;;;7.30;4.60;;;12.70;99.90;;;;;;5155109;27;20039;-65
2022/10/04 00:07:11;;;;;;;8.27;4.85;;;12.70;99.90;;;;;;5155381;27;20066;-65
2022/10/04 00:09:53;;;;;;;6.95;4.93;;;12.70;99.90;;;;;;5155081;27;20081;-65
2022/10/04 00:12:30;;;;;;;8.32;4.30;;;12.70;99.90;;;;;;5155423;27;20047;-65
2022/10/04 00:14:59;;;;;;;9.05;4.63;;;12.70;99.90;;;;;;5155288;27;20030;-65
2022/10/04 00:17:30;;;;;;;14.13;5.07;;;12.70;99.90;;;;;;5155093;27;20070;-65
2022/10/04 00:19:57;;;;;;;10.55;5.18;;;12.70;99.90;;;;;;5155117;27;20046;-65
2022/10/04 00:22:25;;;;;;;11.90;4.78;;;12.70;99.90;;;;;;5155229;27;20045;-65
2022/10/04 00:25:08;;;;;;;9.00;4.35;;;12.70;99.90;;;;;;5153674;27;20043;-65
2022/10/04 00:28:19;;;;;;;8.70;4.70;;;12.70;99.90;;;;;;5155239;27;20042;-65
2022/10/04 00:30:44;;;;;;;9.02;4.63;;;12.70;99.90;;;;;;5145295;27;20051;-65
2022/10/04 00:33:10;;;;;;;15.10;4.82;;;12.70;99.90;;;;;;5154999;27;20035;-65
2022/10/04 00:35:36;;;;;;;10.25;5.18;;;12.60;99.90;;;;;;5154472;27;20080;-65
2022/10/04 00:38:26;;;;;;;8.02;4.78;;;12.60;99.90;;;;;;5154645;27;20035;-65
2022/10/04 00:41:04;;;;;;;5.65;4.20;;;12.60;99.90;;;;;;5153358;27;20026;-65
2022/10/04 00:43:42;;;;;;;6.68;5.30;;;12.60;99.90;;;;;;5154531;27;20405;-65
2022/10/04 00:46:14;;;;;;;7.78;5.43;;;12.60;99.90;;;;;;5154281;27;20113;-65
2022/10/04 00:48:50;;;;;;;8.60;5.10;;;12.60;99.90;;;;;;5154555;27;20394;-65
2022/10/04 00:51:24;;;;;;;8.82;5.15;;;12.60;99.90;;;;;;5154491;27;20050;-65
2022/10/04 00:54:11;;;;;;;9.18;5.45;;;12.60;99.90;;;;;;5152860;27;20042;-65
2022/10/04 00:56:48;;;;;;;8.90;4.72;;;12.60;99.90;;;;;;5154375;27;20039;-65
2022/10/04 00:59:30;;;;;;;6.55;4.80;;;12.60;99.90;;;;;;5154307;27;20050;-65
2022/10/04 01:02:11;;;;;;;8.27;4.95;;;12.60;99.90;;;;;;5154179;27;20605;-65
2022/10/04 01:04:54;;;;;;;10.30;5.10;;;12.60;99.90;;;;;;5154067;27;20043;-65
2022/10/04 01:07:32;;;;;;;7.43;5.18;;;12.60;99.90;;;;;;5154042;27;20039;-65
2022/10/04 01:10:04;;;;;;;6.80;5.18;;;12.60;99.90;;;;;;5153669;27;20035;-65
2022/10/04 01:12:48;;;;;;;8.05;5.63;;;12.60;99.90;;;;;;5153988;27;20398;-65
2022/10/04 01:15:30;;;;;;;7.47;4.72;;;12.50;99.90;;;;;;5152838;27;20043;-65
2022/10/04 01:18:25;;;;;;;13.10;5.60;;;12.50;99.90;;;;;;5152832;27;20039;-65
2022/10/04 01:21:01;;;;;;;9.15;5.90;;;12.50;99.90;;;;;;5135706;27;20066;-65
2022/10/04 01:23:43;;;;;;;12.65;5.60;;;12.50;99.90;;;;;;5153932;27;20034;-65
2022/10/04 01:26:33;;;;;;;8.90;5.50;;;12.50;99.90;;;;;;5153680;27;20034;-64
2022/10/04 01:29:05;;;;;;;11.25;6.10;;;12.50;99.90;;;;;;5153669;27;20142;-65
2022/10/04 01:31:32;;;;;;;10.27;6.63;;;12.40;99.90;;;;;;5153930;27;20039;-65
2022/10/04 01:34:00;;;;;;;12.68;6.15;;;12.50;99.90;;;;;;5153571;27;20058;-65
2022/10/04 01:36:29;;;;;;;9.05;5.60;;;12.40;99.90;;;;;;5152372;27;20506;-65
2022/10/04 01:38:55;;;;;;;9.80;6.07;;;12.50;99.90;;;;;;5152258;27;20046;-65
2022/10/04 01:41:28;;;;;;;10.38;6.35;;;12.40;99.90;;;;;;5153589;27;20035;-65
2022/10/04 01:43:55;;;;;;;;;;;12.50;99.90;;;;;;5153673;27;20555;-65
2022/10/04 01:46:31;;;;;;;11.02;6.63;;;12.50;99.90;;;;;;5152276;27;20412;-65
2022/10/04 01:49:01;;;;;;;14.57;7.20;;;12.50;99.90;;;;;;5153559;27;20039;-65
2022/10/04 01:51:32;;;;;;;8.52;6.28;;;12.50;99.90;;;;;;5152457;27;20049;-65
2022/10/04 01:54:15;;;;;;;9.40;6.05;;;12.50;99.90;;;;;;5153034;27;20031;-65
2022/10/04 01:56:51;;;;;;;12.48;7.40;;;12.50;99.90;;;;;;5153305;27;20027;-65
2022/10/04 01:59:25;;;;;;;10.05;6.43;;;12.50;99.90;;;;;;5153395;27;20444;-65
2022/10/04 02:02:00;;;;;;;13.55;7.07;;;12.50;99.90;;;;;;5153482;27;20444;-65
2022/10/04 02:04:30;;;;;;;11.38;6.38;;;12.50;99.90;;;;;;5151800;27;20047;-65
2022/10/04 02:06:59;;;;;;;10.88;6.45;;;12.50;99.90;;;;;;5153238;27;20047;-65
2022/10/04 02:09:31;;;;;;;12.02;6.85;;;12.50;99.90;;;;;;5153194;27;20050;-65
2022/10/04 02:11:58;;;;;;;11.55;6.13;;;12.50;99.90;;;;;;5153379;27;20035;-65
2022/10/04 02:14:27;;;;;;;13.95;6.30;;;12.50;99.90;;;;;;5134382;27;20042;-65
2022/10/04 02:16:53;;;;;;;11.27;6.68;;;12.50;99.90;;;;;;5153120;27;20030;-65
2022/10/04 02:19:24;;;;;;;11.48;5.95;;;12.50;99.90;;;;;;5151894;27;20398;-65
2022/10/04 02:21:51;;;;;;;9.95;6.55;;;12.50;99.90;;;;;;5153395;27;20406;-66
2022/10/04 02:24:18;;;;;;;13.43;6.20;;;12.50;99.90;;;;;;5151643;27;20038;-65
2022/10/04 02:26:49;;;;;;;9.55;6.10;;;12.50;99.90;;;;;;5153176;27;20398;-65
2022/10/04 02:29:17;;;;;;;13.98;6.63;;;12.40;99.90;;;;;;5151820;27;20043;-65
2022/10/04 02:34:28;;;;;;;10.27;6.47;;;12.40;99.90;;;;;;5152910;27;20039;-65
2022/10/04 02:36:54;;;;;;;10.38;5.65;;;12.40;99.90;;;;;;5152992;27;20042;-65
2022/10/04 02:39:26;;;;;;;16.58;6.53;;;12.40;99.90;;;;;;5151744;27;20046;-66
2022/10/04 02:42:08;;;;;;;10.43;5.78;;;12.40;99.90;;;;;;5152949;27;20414;-65
2022/10/04 02:44:42;;;;;;;10.05;6.13;;;12.40;99.90;;;;;;5152632;27;20043;-65
2022/10/04 02:47:12;;;;;;;23.10;8.65;;;12.30;99.90;;;;;;5152860;27;20506;-65
2022/10/04 02:49:51;;;;;;;10.50;6.10;;;12.30;99.90;;;;;;5152944;27;20122;-65
2022/10/04 02:52:44;;;;;;;11.82;6.13;;;12.30;99.90;;;;;;5153779;27;20038;-65
2022/10/04 02:55:26;;;;;;;8.90;5.97;;;12.20;99.90;;;;;;5155298;27;20042;-65
2022/10/04 02:57:52;;;;;;;;;;;12.20;99.90;;;;;;5157221;27;20034;-65
2022/10/04 03:00:19;;;;;;;13.20;6.05;;;12.20;99.90;;;;;;5156483;27;19914;-65
2022/10/04 03:03:20;;;;;;;8.55;6.07;;;12.20;99.90;;;;;;5156421;27;20821;-65
2022/10/04 03:06:07;;;;;;;12.40;6.03;;;12.20;99.90;;;;;;5156252;27;20038;-65
2022/10/04 03:08:42;;;;;;;11.43;5.82;;;12.20;99.90;;;;;;5156473;27;20043;-65
2022/10/04 03:11:08;;;;;;;11.32;5.75;;;12.10;99.90;;;;;;5156292;27;20616;-65
2022/10/04 03:13:36;;;;;;;8.80;5.82;;;12.10;99.90;;;;;;5156553;27;20455;-65
2022/10/04 03:16:02;;;;;;;14.85;6.25;;;12.00;99.90;;;;;;5156204;27;20440;-65
2022/10/04 03:18:30;;;;;;;11.63;6.18;;;12.10;99.90;;;;;;5155205;27;20103;-65
2022/10/04 03:20:56;;;;;;;11.70;6.60;;;12.00;99.90;;;;;;5156237;27;20478;-65
2022/10/04 03:23:22;;;;;;;14.32;7.22;;;12.00;99.90;;;;;;5156213;27;20083;-65
2022/10/04 03:26:14;;;;;;;11.32;5.97;;;12.00;99.90;;;;;;5155632;27;20082;-65
2022/10/04 03:28:39;;;;;;;13.95;6.78;;;12.00;99.90;;;;;;5071508;28;20044;-66
2022/10/04 03:31:05;;;;;;;12.20;6.70;;;11.90;99.90;;;;;;5071758;28;20175;-65
2022/10/04 03:33:31;;;;;;;9.88;6.50;;;11.90;99.90;;;;;;5071662;28;20505;-65
2022/10/04 03:35:59;;;;;;;10.77;6.57;;;11.90;99.90;;;;;;5071341;28;20513;-65
2022/10/04 03:38:27;;;;;;;11.80;6.78;;;11.90;99.90;;;;;;5071568;28;20044;-65
2022/10/04 03:40:56;;;;;;;7.85;6.05;;;11.90;99.90;;;;;;5054778;28;20044;-65
2022/10/04 03:43:25;;;;;;;9.57;7.38;;;11.90;99.90;;;;;;5071478;28;20037;-65
2022/10/04 03:45:52;;;;;;;10.52;6.93;;;11.90;99.90;;;;;;5071137;28;20040;-65
2022/10/04 03:48:27;;;;;;;11.13;6.85;;;11.90;99.90;;;;;;5054687;28;20493;-65
2022/10/04 03:50:53;;;;;;;12.18;7.53;;;11.90;99.90;;;;;;5071388;28;20076;-65
2022/10/04 03:53:42;;;;;;;11.13;6.88;;;11.90;99.90;;;;;;5071330;28;20114;-65
2022/10/04 03:56:17;;;;;;;11.85;7.88;;;11.80;99.90;;;;;;5071237;28;20698;-65
2022/10/04 03:58:43;;;;;;;9.10;7.05;;;11.80;99.90;;;;;;5071042;28;20130;-65
2022/10/04 04:01:22;;;;;;;12.20;7.60;;;11.80;99.90;;;;;;5054337;28;20123;-65
2022/10/04 04:03:56;;;;;;;12.63;7.00;;;11.80;99.90;;;;;;5069626;28;20044;-66
2022/10/04 04:06:23;;;;;;;12.00;7.78;;;11.80;99.90;;;;;;5145024;27;20133;-65
2022/10/04 04:08:52;;;;;;;14.60;7.53;;;11.80;99.90;;;;;;5155148;27;20035;-65
2022/10/04 04:11:25;;;;;;;13.57;8.23;;;11.80;99.90;;;;;;5155222;27;20072;-65
2022/10/04 04:14:16;;;;;;;14.60;8.85;;;11.80;99.90;;;;;;5154835;27;20042;-65
2022/10/04 04:16:42;;;;;;;14.00;8.18;;;11.80;99.90;;;;;;5155243;27;20050;-65
2022/10/04 04:19:14;;;;;;;18.05;8.90;;;11.70;99.90;;;;;;5155125;27;20064;-65
2022/10/04 04:21:40;;;;;;;14.05;8.55;;;11.70;99.90;;;;;;5155094;27;20039;-65
2022/10/04 04:24:21;;;;;;;15.05;8.13;;;11.60;99.90;;;;;;5154540;27;20118;-66
2022/10/04 04:26:53;;;;;;;12.65;8.48;;;11.60;99.90;;;;;;5155063;27;20042;-65
2022/10/04 04:29:41;;;;;;;14.32;8.70;;;11.60;99.90;;;;;;5155045;27;20030;-66
2022/10/04 04:32:23;;;;;;;15.55;9.07;;;11.70;99.90;;;;;;5154910;27;20034;-65
2022/10/04 04:34:56;;;;;;;10.88;7.50;;;11.60;99.90;;;;;;5154755;27;20031;-65
2022/10/04 04:37:21;;;;;;;15.50;8.68;;;11.60;99.90;;;;;;5154928;27;20131;-65
2022/10/04 04:39:54;;;;;;;14.27;8.68;;;11.60;99.90;;;;;;5154658;27;20074;-65
2022/10/04 04:42:22;;;;;;;;;;;11.60;99.90;;;;;;5153749;27;20053;-65
2022/10/04 04:45:16;;;;;;;13.65;8.80;;;11.50;99.90;;;;;;5154124;27;19915;-65
2022/10/04 04:47:45;;;;;;;17.92;8.77;;;11.50;99.90;;;;;;5150048;27;20054;-65
2022/10/04 04:50:15;;;;;;;13.35;8.57;;;11.50;99.90;;;;;;5154470;27;20042;-65
2022/10/04 04:52:51;;;;;;;17.40;8.60;;;11.50;99.90;;;;;;5154501;27;20087;-66
2022/10/04 04:55:26;;;;;;;13.45;8.90;;;11.40;99.90;;;;;;5154025;27;20038;-65
2022/10/04 04:57:55;;;;;;;12.73;8.43;;;11.40;99.90;;;;;;5154573;27;20039;-65
2022/10/04 05:00:27;;;;;;;13.43;7.82;;;11.40;99.90;;;;;;5152888;27;20546;-65
2022/10/04 05:02:57;;;;;;;14.43;8.77;;;11.40;99.90;;;;;;5154193;27;20043;-65
2022/10/04 05:05:32;;;;;;;13.90;8.32;;;11.40;99.90;;;;;;5153921;27;20292;-65
2022/10/04 05:08:09;;;;;;;12.38;8.35;;;11.40;99.90;;;;;;5153951;27;20050;-65
2022/10/04 05:10:36;;;;;;;13.95;8.80;;;11.30;99.90;;;;;;5153929;27;20043;-65
2022/10/04 05:13:03;;;;;;;12.30;8.68;;;11.30;99.90;;;;;;5154138;27;20034;-65
2022/10/04 05:15:38;;;;;;;14.50;8.50;;;11.30;99.90;;;;;;5153374;27;20095;-65
2022/10/04 05:18:36;;;;;;;14.70;8.82;;;11.30;99.90;;;;;;5153951;27;20400;-65
2022/10/04 05:21:24;;;;;;;12.05;8.50;;;11.30;99.90;;;;;;5069667;28;20050;-65
2022/10/04 05:23:50;;;;;;;15.65;8.77;;;11.20;99.90;;;;;;5068953;28;20416;-66
2022/10/04 05:26:27;;;;;;;11.55;8.52;;;11.20;99.90;;;;;;5068406;28;20043;-65
2022/10/04 05:28:58;;;;;;;14.93;9.07;;;11.20;99.90;;;;;;5035804;28;20527;-65
2022/10/04 05:31:48;;;;;;;9.25;7.07;;;11.10;99.90;;;;;;5069590;28;20048;-65
2022/10/04 05:34:26;;;;;;;16.90;8.57;;;11.10;99.90;;;;;;5069223;28;20475;-66
2022/10/04 05:36:57;;;;;;;12.38;8.70;;;11.00;99.90;;;;;;5069371;28;20052;-65
2022/10/04 05:39:53;;;;;;;12.07;7.63;;;11.00;99.90;;;;;;5069326;28;20037;-65
2022/10/04 05:42:23;;;;;;;13.57;7.78;;;11.00;99.90;;;;;;5017146;28;20060;-66
2022/10/04 05:44:54;;;;;;;12.85;8.15;;;11.00;99.90;;;;;;5066597;28;20044;-65
2022/10/04 05:47:22;;;;;;;13.15;7.88;;;10.90;99.90;;;;;;5068790;28;20127;-65
2022/10/04 05:49:51;;;;;;;12.27;7.85;;;10.90;99.90;;;;;;5068570;28;20497;-65
2022/10/04 05:52:34;;;;;;;18.05;8.77;;;10.90;99.90;;;;;;5068576;28;20044;-65
2022/10/04 05:55:27;;;;;;;9.88;7.78;;;10.80;99.90;;;;;;5069096;28;20044;-65
2022/10/04 05:58:44;;;;;;;12.55;8.15;;;10.90;99.90;;;;;;5150922;27;20042;-65
2022/10/04 06:01:26;;;;;;;10.88;8.35;;;10.90;99.90;;;;;;5121139;27;20129;-65
2022/10/04 06:04:30;;;;;;;12.90;7.93;;;10.80;99.90;;;;;;5153237;27;20398;-65
2022/10/04 06:07:14;;;;;;;16.42;8.52;;;10.80;99.90;;;;;;5146239;27;20031;-65
2022/10/04 06:10:08;;;;;;;14.48;8.75;;;10.80;99.90;;;;;;5132603;27;20039;-64
2022/10/04 06:13:02;;;;;;;17.25;9.10;;;10.90;99.90;;;;;;5132524;27;20043;-65
2022/10/04 06:15:57;;;;;;;13.82;8.73;;;10.90;99.90;;;;;;5132212;27;20560;-65
2022/10/04 06:18:32;;;;;;;12.60;8.25;;;10.90;99.90;;;;;;5132521;27;20039;-65
2022/10/04 06:21:09;;;;;;;14.23;8.73;;;10.90;99.90;;;;;;5132489;27;20057;-65
2022/10/04 06:23:44;;;;;;;15.57;9.20;;;10.90;99.90;;;;;;5131347;28;20039;-65
2022/10/04 06:26:17;;;;;;;15.65;9.30;;;10.90;99.90;;;;;;5132384;27;20118;-65
2022/10/04 06:28:51;;;;;;;13.55;9.10;;;10.90;99.90;;;;;;5135718;27;20395;-65
2022/10/04 06:31:30;;;;;;;13.43;9.98;;;10.90;99.90;;;;;;5136456;27;20164;-65
2022/10/04 06:34:17;;;;;;;17.05;9.98;;;11.00;99.90;;;;;;5136289;27;20035;-66
2022/10/04 06:37:01;;;;;;;11.77;9.85;;;11.00;99.90;;;;;;5136099;27;20046;-65
2022/10/04 06:39:57;;;;;;;15.77;9.27;;;11.00;99.90;;;;;;5136115;27;20399;-65
2022/10/04 06:42:41;;;;;;;13.85;10.32;;;11.10;99.90;;;;;;5136339;27;20039;-65
2022/10/04 06:45:29;;;;;;;16.70;10.15;;;11.10;99.90;;;;;;5136086;27;20410;-65
2022/10/04 06:48:23;;;;;;;17.35;10.35;;;11.10;99.90;;;;;;5136243;27;20035;-65
2022/10/04 06:50:53;;;;;;;15.52;9.95;;;11.10;99.90;;;;;;5136283;27;20042;-65
2022/10/04 06:53:23;;;;;;;18.40;10.25;;;11.20;99.90;;;;;;5136031;27;20039;-65
2022/10/04 06:56:04;;;;;;;18.67;10.50;;;11.20;99.90;;;;;;5134593;27;20122;-65
2022/10/04 06:58:44;;;;;;;15.52;10.48;;;11.20;99.90;;;;;;5136121;27;20375;-65
2022/10/04 07:01:31;;;;;;;17.50;10.05;;;11.30;99.90;;;;;;5135905;27;20499;-65
2022/10/04 07:04:24;;;;;;;15.30;9.88;;;11.30;99.90;;;;;;5135523;27;20067;-65
2022/10/04 07:07:24;;;;;;;;;;;11.30;99.90;;;;;;5136282;27;20045;-65
2022/10/04 07:10:19;;;;;;;16.23;10.85;;;11.30;99.90;;;;;;5135630;27;19919;-65
2022/10/04 07:12:55;;;;;;;18.88;10.40;;;11.40;99.90;;;;;;5136955;27;20466;-65
2022/10/04 07:15:28;;;;;;;17.83;10.32;;;11.50;99.90;;;;;;5150146;27;20117;-66
2022/10/04 07:17:57;;;;;;;20.33;11.23;;;11.50;99.90;;;;;;5155469;27;20039;-66
2022/10/04 07:20:32;;;;;;;21.10;11.68;;;11.60;99.90;;;;;;5155571;27;20108;-66
2022/10/04 07:23:24;;;;;;;16.20;10.77;;;11.70;99.90;;;;;;5154620;27;20035;-66
2022/10/04 07:25:54;;;;;;;21.48;11.07;;;11.70;99.90;;;;;;5144623;27;20054;-65
2022/10/04 07:31:28;;;;;;;19.65;11.02;;;11.90;99.90;;;;;;5155931;27;20502;-65
2022/10/04 07:34:01;;;;;;;21.92;10.38;;;12.00;99.90;;;;;;5155934;27;20050;-66
2022/10/04 07:36:41;;;;;;;15.80;10.32;;;12.00;99.90;;;;;;5155980;27;20041;-65
2022/10/04 07:39:19;;;;;;;19.48;11.18;;;12.10;99.90;;;;;;5155614;27;20410;-65
2022/10/04 07:41:52;;;;;;;16.73;11.15;;;12.10;99.90;;;;;;5155831;27;20079;-65
2022/10/04 07:44:26;;;;;;;;;;;12.10;99.90;;;;;;5156103;27;20121;-65
2022/10/04 07:47:13;;;;;;;19.52;9.80;;;12.10;99.90;;;;;;5154640;27;19915;-65
2022/10/04 07:49:40;;;;;;;18.65;10.00;;;12.10;99.90;;;;;;5155673;27;20141;-65
2022/10/04 07:52:36;;;;;;;14.85;9.68;;;12.10;99.90;;;;;;5154713;27;20038;-66
2022/10/04 07:55:28;;;;;;;14.70;9.18;;;12.10;99.90;;;;;;5145492;27;20038;-66
2022/10/04 07:58:06;;;;;;;14.75;9.18;;;12.20;99.90;;;;;;5144882;27;20078;-65
2022/10/04 08:00:48;;;;;;;15.05;10.00;;;12.20;99.90;;;;;;5153045;27;20050;-65
2022/10/04 08:03:45;;;;;;;12.57;8.27;;;12.20;99.90;;;;;;5155581;27;20050;-65
2022/10/04 08:06:13;;;;;;;16.13;9.15;;;12.20;99.90;;;;;;5155260;27;20491;-65
2022/10/04 08:08:59;;;;;;;13.75;7.93;;;12.30;99.90;;;;;;5155451;27;20074;-65
2022/10/04 08:11:38;;;;;;;11.48;8.32;;;12.30;99.90;;;;;;5155476;27;20062;-65
2022/10/04 08:14:38;;;;;;;13.88;8.60;;;12.40;99.90;;;;;;5155051;27;20113;-65
2022/10/04 08:17:27;;;;;;;15.05;8.45;;;12.40;99.90;;;;;;5155293;27;20039;-66
2022/10/04 08:20:02;;;;;;;11.77;7.72;;;12.50;99.90;;;;;;5155283;27;20117;-66
2022/10/04 08:22:51;;;;;;;14.38;8.13;;;12.60;99.90;;;;;;5136666;27;20045;-67
2022/10/04 08:25:35;;;;;;;14.13;7.78;;;12.70;99.90;;;;;;5155005;27;20122;-66
2022/10/04 08:32:03;;;;;;;12.27;7.70;;;12.90;99.90;;;;;;5155412;27;20074;-66
2022/10/04 08:34:43;;;;;;;20.63;7.63;;;13.00;99.90;;;;;;5154842;27;20129;-66
2022/10/04 08:37:12;;;;;;;12.48;7.90;;;13.00;99.90;;;;;;5154982;27;20077;-66
2022/10/04 08:40:15;;;;;;;16.45;7.82;;;13.00;99.90;;;;;;5155065;27;20111;-66
2022/10/04 08:42:56;;;;;;;;;;;13.00;99.90;;;;;;5155348;27;20042;-66
2022/10/04 08:45:46;;;;;;;11.05;7.10;;;13.00;99.90;;;;;;5153167;27;19971;-66
2022/10/04 08:48:21;;;;;;;14.00;7.25;;;13.00;99.90;;;;;;5155049;27;20034;-65
2022/10/04 08:51:16;;;;;;;9.85;6.70;;;13.00;99.90;;;;;;5154065;27;20115;-65
2022/10/04 08:53:48;;;;;;;10.60;6.85;;;13.00;99.90;;;;;;5154313;27;20039;-64
2022/10/04 08:56:35;;;;;;;9.13;6.30;;;13.20;99.90;;;;;;5154355;27;20031;-65
2022/10/04 08:59:09;;;;;;;10.65;6.18;;;13.50;99.90;;;;;;5154291;27;20045;-65
2022/10/04 09:01:56;;;;;;;9.07;7.05;;;13.60;99.90;;;;;;5152998;27;20047;-66
2022/10/04 09:04:45;;;;;;;10.93;6.15;;;13.50;99.90;;;;;;5153834;27;20042;-65
2022/10/04 09:07:44;;;;;;;10.13;6.20;;;13.40;99.90;;;;;;5144679;27;20042;-65
2022/10/04 09:10:52;;;;;;;15.35;6.95;;;13.40;99.90;;;;;;5138666;27;20046;-65
2022/10/04 09:13:49;;;;;;;8.77;5.78;;;13.40;99.90;;;;;;5137004;27;20029;-65
2022/10/04 09:16:37;;;;;;;9.27;6.20;;;13.40;99.90;;;;;;5154038;27;20030;-65
2022/10/04 09:19:39;;;;;;;16.17;6.70;;;13.40;99.90;;;;;;5153997;27;20042;-65
2022/10/04 09:22:45;;;;;;;11.47;6.77;;;13.50;99.90;;;;;;5154151;27;20039;-65
2022/10/04 09:25:23;;;;;;;12.63;6.63;;;13.40;99.90;;;;;;5153900;27;20376;-66
2022/10/04 09:28:19;;;;;;;11.43;7.10;;;13.50;99.90;;;;;;5153895;27;20081;-66
2022/10/04 09:31:23;;;;;;;11.60;7.18;;;13.50;99.90;;;;;;5153830;27;20502;-66
2022/10/04 09:33:48;;;;;;;;;;;13.60;99.90;;;;;;5152829;27;20432;-66
2022/10/04 09:36:28;;;;;;;12.77;7.30;;;13.70;99.90;;;;;;5153775;27;19915;-66
2022/10/04 09:39:24;;;;;;;9.43;6.55;;;13.70;99.90;;;;;;5153633;27;20046;-66
2022/10/04 09:42:14;;;;;;;13.80;7.97;;;13.70;99.90;;;;;;5153988;27;20034;-66
2022/10/04 09:45:01;;;;;;;12.55;6.97;;;13.70;99.90;;;;;;5153453;27;20035;-65
2022/10/04 09:47:44;;;;;;;13.18;7.28;;;13.70;99.90;;;;;;5153390;27;20039;-65
2022/10/04 09:50:25;;;;;;;11.90;6.95;;;13.80;99.90;;;;;;5153694;27;20096;-66
2022/10/04 09:53:18;;;;;;;14.90;6.78;;;13.90;99.90;;;;;;5152285;27;20035;-65
2022/10/04 09:56:06;;;;;;;14.00;6.65;;;13.90;99.90;;;;;;5153419;27;20123;-65
2022/10/04 09:58:57;;;;;;;14.05;7.20;;;14.00;99.90;;;;;;5153550;27;20038;-65
2022/10/04 10:01:36;;;;;;;10.85;6.78;;;14.10;99.90;;;;;;5153446;27;20073;-65
2022/10/04 10:04:27;;;;;;;8.75;6.00;;;14.10;99.90;;;;;;5157500;27;20038;-65
2022/10/04 10:07:01;;;;;;;11.40;5.35;;;14.20;99.90;;;;;;5156668;27;20107;-66
2022/10/04 10:13:38;;;;;;;10.38;5.38;;;14.20;99.90;;;;;;5157508;27;20043;-65
2022/10/04 10:16:17;;;;;;;15.70;5.40;;;14.40;99.90;;;;;;5157330;27;20070;-66
2022/10/04 10:18:58;;;;;;;11.10;5.72;;;14.40;99.90;;;;;;5157475;27;20518;-66
2022/10/04 10:21:46;;;;;;;9.95;5.30;;;14.50;99.90;;;;;;5157487;27;20513;-66
2022/10/04 10:24:24;;;;;;;10.18;4.60;;;14.50;99.90;;;;;;5157212;27;20042;-66
2022/10/04 10:27:24;;;;;;;11.60;5.10;;;14.50;99.90;;;;;;5157345;27;20031;-66
2022/10/04 10:30:23;;;;;;;8.15;5.25;;;14.50;99.90;;;;;;5157427;27;20054;-67
2022/10/04 10:33:36;;;;;;;8.15;4.90;;;14.60;99.90;;;;;;5114658;27;20038;-66
2022/10/04 10:36:14;;;;;;;7.03;5.00;;;14.80;99.90;;;;;;5156884;27;20509;-65
2022/10/04 10:38:59;;;;;;;11.23;4.95;;;14.60;99.90;;;;;;5157248;27;20043;-66
2022/10/04 10:41:34;;;;;;;9.88;4.80;;;14.70;99.90;;;;;;5157165;27;20084;-65
2022/10/04 10:44:22;;;;;;;7.93;5.22;;;14.70;99.90;;;;;;5156696;27;20459;-66
2022/10/04 10:47:29;;;;;;;8.20;4.97;;;14.70;99.90;;;;;;5156894;27;20084;-65
2022/10/04 10:50:14;;;;;;;9.93;5.03;;;14.70;99.90;;;;;;5156880;27;20163;-67
2022/10/04 10:53:06;;;;;;;11.20;5.50;;;14.90;99.90;;;;;;5156790;27;20039;-66
2022/10/04 10:55:59;;;;;;;10.20;5.40;;;15.00;99.90;;;;;;5156488;27;20038;-65
2022/10/04 10:58:53;;;;;;;8.25;4.97;;;14.90;99.90;;;;;;5156552;27;20133;-65
2022/10/04 11:02:04;;;;;;;7.40;4.47;;;15.00;99.90;;;;;;5150312;27;20042;-65
2022/10/04 11:04:50;;;;;;;8.77;5.18;;;15.10;99.90;;;;;;5145265;27;20633;-66
2022/10/04 11:07:50;;;;;;;8.88;4.93;;;15.20;99.90;;;;;;5146604;27;20035;-65
2022/10/04 11:10:38;;;;;;;8.35;4.60;;;15.30;99.90;;;;;;5146383;27;20035;-65
2022/10/04 11:13:09;;;;;;;9.52;4.50;;;15.40;99.90;;;;;;5145850;27;20034;-65
2022/10/04 11:15:47;;;;;;;8.38;4.13;;;15.40;99.90;;;;;;5144451;27;20133;-65
2022/10/04 11:18:33;;;;;;;7.60;3.90;;;15.40;99.90;;;;;;5145756;27;20070;-65
2022/10/04 11:21:07;;;;;;;8.93;4.10;;;15.40;99.90;;;;;;5146594;27;20090;-65
2022/10/04 11:23:55;;;;;;;9.73;4.20;;;15.40;99.90;;;;;;5154083;27;20042;-66
2022/10/04 11:26:39;;;;;;;6.05;3.85;;;15.40;99.90;;;;;;5155086;27;20038;-67
2022/10/04 11:29:19;;;;;;;8.95;4.00;;;15.50;99.90;;;;;;5156308;27;20078;-67
2022/10/04 11:32:22;;;;;;;8.90;3.67;;;15.50;99.90;;;;;;5156087;27;20390;-67
2022/10/04 11:35:10;;;;;;;7.05;3.33;;;15.50;99.90;;;;;;5155094;27;20046;-67
2022/10/04 11:37:59;;;;;;;6.70;3.08;;;15.60;99.90;;;;;;5155978;27;20089;-66
2022/10/04 11:40:47;;;;;;;4.68;3.05;;;15.60;99.90;;;;;;5156027;27;20083;-66
2022/10/04 11:43:34;;;;;;;5.40;2.38;;;15.60;99.90;;;;;;5155950;27;20042;-66
2022/10/04 11:46:32;;;;;;;5.97;3.15;;;15.70;99.90;;;;;;5154234;27;20034;-67
2022/10/04 11:49:23;;;;;;;5.57;2.63;;;15.60;99.90;;;;;;5154584;27;20042;-67
2022/10/04 11:52:15;;;;;;;5.82;2.80;;;15.70;99.90;;;;;;5154359;27;20050;-67
2022/10/04 11:55:07;;;;;;;4.50;2.53;;;15.60;99.90;;;;;;5155563;27;20407;-67
2022/10/04 11:57:46;;;;;;;6.37;3.10;;;15.70;99.90;;;;;;5154235;27;20045;-67
2022/10/04 12:00:16;;;;;;;7.32;3.17;;;15.70;99.90;;;;;;5155266;27;20460;-68
2022/10/04 12:02:52;;;;;;;8.23;3.30;;;15.80;99.90;;;;;;5155591;27;20035;-67
2022/10/04 12:05:20;;;;;;;6.40;3.25;;;15.80;99.90;;;;;;5155237;27;20035;-67
2022/10/04 12:08:15;;;;;;;5.03;2.95;;;15.70;99.90;;;;;;5155383;27;20037;-67
2022/10/04 12:10:45;;;;;;;7.05;3.25;;;15.80;99.90;;;;;;5153992;27;20045;-66
2022/10/04 12:13:36;;;;;;;5.85;3.03;;;15.90;99.90;;;;;;5155571;27;20045;-68
2022/10/04 12:16:42;;;;;;;7.22;3.38;;;15.70;99.90;;;;;;5153752;27;20107;-68
2022/10/04 12:19:46;;;;;;;9.75;3.03;;;15.90;99.90;;;;;;5154260;27;20516;-67
2022/10/04 12:22:38;;;;;;;9.73;4.57;;;15.80;99.90;;;;;;5155302;27;20043;-67
2022/10/04 12:25:29;;;;;;;6.72;3.67;;;16.00;99.90;;;;;;5152494;27;20043;-67
2022/10/04 12:28:15;;;;;;;8.90;4.55;;;16.00;99.90;;;;;;5154181;27;20375;-67
2022/10/04 12:31:15;;;;;;;10.18;3.75;;;15.90;99.90;;;;;;5154845;27;20486;-67
2022/10/04 12:34:16;;;;;;;8.38;3.80;;;16.00;99.90;;;;;;5141023;27;20051;-67
2022/10/04 12:36:59;;;;;;;11.70;4.53;;;16.00;99.90;;;;;;5154788;27;20083;-67
2022/10/04 12:39:39;;;;;;;9.38;3.50;;;16.00;99.90;;;;;;5154791;27;20137;-67
2022/10/04 12:42:53;;;;;;;8.07;3.90;;;16.10;99.90;;;;;;5153470;27;20053;-67
2022/10/04 12:45:29;;;;;;;5.78;3.15;;;16.10;99.90;;;;;;5154407;27;20045;-67
2022/10/04 12:48:01;;;;;;;6.40;3.42;;;16.00;99.90;;;;;;5154511;27;20043;-67
2022/10/04 12:50:45;;;;;;;8.65;3.35;;;16.10;99.90;;;;;;5154914;27;20043;-67
2022/10/04 12:53:33;;;;;;;5.25;3.15;;;16.10;99.90;;;;;;5153483;27;20048;-67
2022/10/04 12:56:19;;;;;;;8.82;3.33;;;16.10;99.90;;;;;;5154329;27;20039;-67
2022/10/04 12:59:10;;;;;;;7.90;3.97;;;16.20;99.90;;;;;;5154433;27;20066;-67
2022/10/04 13:01:53;;;;;;;7.60;4.43;;;16.20;99.90;;;;;;5153222;27;20110;-67
2022/10/04 13:04:28;;;;;;;6.25;3.50;;;16.20;99.90;;;;;;5153123;27;20463;-67
2022/10/04 13:07:15;;;;;;;8.77;4.90;;;16.30;99.90;;;;;;5154232;27;20031;-67
2022/10/04 13:10:02;;;;;;;7.50;3.75;;;16.20;99.90;;;;;;5152919;27;20118;-67
2022/10/04 13:12:39;;;;;;;4.50;3.05;;;16.20;99.90;;;;;;5154231;27;20550;-67
2022/10/04 13:15:24;;;;;;;7.13;3.17;;;16.50;99.90;;;;;;5152377;27;20075;-67
2022/10/04 13:17:49;;;;;;;5.13;2.80;;;16.40;99.90;;;;;;5154148;27;20031;-67
2022/10/04 13:20:24;;;;;;;7.72;3.40;;;16.40;99.90;;;;;;5153873;27;20050;-67
2022/10/04 13:23:33;;;;;;;4.72;2.70;;;16.30;99.90;;;;;;5154146;27;20039;-67
2022/10/04 13:26:19;;;;;;;5.65;2.95;;;16.40;99.90;;;;;;5153775;27;20042;-67
2022/10/04 13:28:53;;;;;;;4.93;3.22;;;16.40;99.90;;;;;;5153729;27;20042;-67
2022/10/04 13:31:33;;;;;;;6.10;3.10;;;16.40;99.90;;;;;;5135331;27;20595;-67
2022/10/04 13:34:19;;;;;;;4.93;3.00;;;16.40;99.90;;;;;;5153529;27;20031;-67
2022/10/04 13:37:19;;;;;;;6.20;2.85;;;16.30;99.90;;;;;;5099937;27;20047;-67
2022/10/04 13:39:50;;;;;;;4.57;3.10;;;16.20;99.90;;;;;;5153757;27;20041;-67
2022/10/04 13:42:40;;;;;;;7.18;3.55;;;16.20;99.90;;;;;;5152417;27;20452;-67
2022/10/04 13:45:22;;;;;;;9.32;4.20;;;16.30;99.90;;;;;;5153523;27;20047;-68
2022/10/04 13:48:22;;;;;;;11.00;3.80;;;16.20;99.90;;;;;;5153809;27;20061;-67
2022/10/04 13:51:05;;;;;;;6.30;3.50;;;16.30;99.90;;;;;;5153717;27;20123;-68
2022/10/04 13:57:04;;;;;;;5.53;3.92;;;16.40;99.90;;;;;;5068787;28;20063;-67
2022/10/04 13:59:32;;;;;;;8.57;3.80;;;16.40;99.90;;;;;;5069267;28;20449;-67
2022/10/04 14:02:28;;;;;;;12.23;5.00;;;16.50;99.90;;;;;;5052586;28;20053;-67
2022/10/04 14:05:00;;;;;;;11.05;4.38;;;16.50;99.90;;;;;;5069036;28;20515;-67
2022/10/04 14:07:55;;;;;;;9.52;4.45;;;16.50;99.90;;;;;;5052406;28;20731;-67
2022/10/04 14:10:49;;;;;;;6.78;4.18;;;16.50;99.90;;;;;;5069228;28;20076;-67